Norfolk, NE (68701)

12:43 CDT le 31 octobre 2014 (GMT -0500)
West Central - Norfolk | Change Station
CLOSE
Current Station
Stations météorologiques personnelles
Location: Norfolk, NE
Altitude: 1640 ft
Stations météo à proximité

Alt. 1640 ft 42.04 °N, 97.45 °W | Updated 3 minutes ago

Ciel dégagé
Ciel dégagé
35.9 ° F
Paraît 32 ° F
N
5.0
Vent Variable Vent de NE
Gusts 7.0 mph

Aujourd'hui
Haut(e) -- | Bas -- ° F
--% Risque de précip.
Hier
Haut(e) -- | Bas -- ° F
Precip. -- pouce
8:01 AM 6:24 PM
Premier quartier, 57% visible
Pression 30.62 pouce
Visibilité 10.0 Miles terrestres
Nuages Ciel dégagé
Refroidissement éolien 32 ° F
Point de rosée 20 ° F
Humidité 53%
Précipitations 0.00 pouce
Profondeur de la couche neigeuse Non disponible.
UV 3 sur 12
Pollen .10 sur 12
Qualité de l'air Non disponible.
Flu Activity Non disponible.
METAR KOFK 311656Z AUTO 05005KT 10SM CLR 02/M08 A3057 RMK AO2 SLP367 T00221083

More Conditions Fewer Conditions

Pression 30.62 pouce
Visibilité 10.0 Miles terrestres
Nuages Ciel dégagé
Refroidissement éolien 32 ° F
Point de rosée 20 ° F
Humidité 53%
Précipitations 0.00 pouce
Profondeur de la couche neigeuse Non disponible.
UV 3 sur 12
Pollen .10 sur 12
Qualité de l'air Non disponible.
Flu Activity Non disponible.
METAR KOFK 311656Z AUTO 05005KT 10SM CLR 02/M08 A3057 RMK AO2 SLP367 T00221083

More Conditions Fewer Conditions

10-Day Weather Forecast

Almanac

Astronomie

Oct. 31, 2014 Lever Coucher
Temps réel
Crépuscule civil
Crépuscule nautique
Crépuscule astronomique
Lune
Durée de lumière visible
Longueur du jour
Tomorrow will be .
, % of the Moon is Illuminated

Extrêmes aujourd'hui

State Highs State Lows

Community

WunderPhotos

Upload Photos

1,766,673 Photos téléchargées !

WunderBlogs® & News

Nearby

Qualité de l'air

  Qualité de l'air Indice de la qualité de l'air Polluant
Not available.

Épaisseur de neige

Station Depth Altitude

Activité sismique

Ville Distance Mag. Time & Date
Minimum magnitude displayed is 2.5.

Températures des eaux côtières

Lieu Température

Stations météo à proximité